NWS Home NWS Lubbock West Texas Mesonet South Sector Latest Conditions as of 0256 PM, Fri Apr 28, 2017

Latest   N   C   S   Daily Sum   3hrΔ   24hrΔ   Soil Data 
Site Map   24hr Precip   72hr Precip   Google Plot


Station Time of Last Temp Dew Pt. RH Wind Direction Wind Speed Wind Gust Max Wind Max Temp Min Temp Max RH Min RH Altimeter 1HR Rain Today's Rain Solar Rad Red Flag
Andrews 2E  02:50 PM 84 35 17% W1218 28 mph 351° @ 0430 AM 84 57 52 17 29.62" 0 0.00 925  
Aspermont 3NE  02:50 PM 87 41 20% SE713 31 mph 185° @ 1225 AM 89 57 75 20 29.58" 0 0.00 816  
Big Bend NP - Persimmon Gap  02:50 PM 94 31 11% SW1823 28 mph 215° @ 0145 PM 95 62 46 10 29.61" 0 0.00 629 2
Big Lake 1WNW  02:50 PM 88 45 22% SW45 27 mph 182° @ 1239 AM 89 65 93 21 29.61" 0 0.00 380  
Brownfield 2S  02:50 PM 81 37 21% S1722 31 mph 317° @ 0120 AM 83 55 63 20 29.61" 0 0.00 760  
Clyde 2WNW  02:50 PM 81 56 42% SE89 27 mph 186° @ 0316 AM 82 67 82 38 29.61" 0 0.00 691  
Coyanosa 2N  02:50 PM 90 38 16% S910 24 mph 220° @ 0528 AM 91 69 29 16 29.57" 0 0.00 699  
Dell City  02:50 PM 83 36 18% W2431 40 mph 265° @ 1130 AM 83 56 53 18 29.64" 0 0.00 825  
Denver City 7WNW  02:50 PM 79 32 19% SW2334 34 mph 181° @ 0220 PM 79 50 67 19 29.61" 0 0.00 838  
Fluvanna 3WNW  02:50 PM 82 36 20% SE1115 27 mph 192° @ 0155 AM 82 56 73 19 29.61" 0 0.00 429  
Fort Chadbourne  02:50 PM 81 62 52% SE57 24 mph 209° @ 0559 AM 82 66 82 49 29.59" 0 0.00 413  
Fort Lancaster  02:50 PM 92 51 25% S811 29 mph 138° @ 1205 AM 93 68 87 25 29.58" 0 0.00 1034  
Fort McKavett  02:50 PM 91 57 32% W34 24 mph 176° @ 0112 AM 91 67 90 32 29.61" 0 0.00 927  
Gail 2ESE  02:50 PM 83 42 25% SE1015 30 mph 201° @ 0215 AM 83 56 74 23 29.59" 0 0.00 529  
Graham 5SSW  02:40 PM 82 38 22% SE1626 36 mph 194° @ 0145 AM 82 54 78 22 29.61" 0 0.00 892  
Guadalupe Mtns Natl Park  02:50 PM 70 31 24% SW2736 54 mph 244° @ 0212 PM 72 62 37 15 29.70" 0 0.00 612  
Haskell 1NW  02:50 PM 85 43 23% E914 31 mph 188° @ 1230 AM 85 59 68 22 29.57" 0 0.00 824  
Hobbs NM 5NW  02:50 PM 81 32 17% SW2028 33 mph 225° @ 0216 PM 81 53 55 15 29.64" 0 0.00 824  
Jayton 1SSE  02:50 PM 83 42 24% SE1015 38 mph 198° @ 0105 AM 84 56 79 22 29.57" 0 0.00 460  
Junction 1SSW  02:50 PM 91 62 37% E34 23 mph 181° @ 1201 AM 92 69 85 37 29.59" 0 0.00 508  
Lake Alan Henry 1NW  02:50 PM 84 38 20% SE1113 31 mph 200° @ 1230 AM 85 54 76 20 29.58" 0 0.00 608  
Lamesa 2SE  02:50 PM 83 40 22% S1120 23 mph 269° @ 0305 AM 83 56 66 22 29.62" 0 0.00 833  
Lomax 1SSE  02:50 PM 88 39 18% SW58 28 mph 190° @ 1223 AM 89 59 67 18 29.60" 0 0.00 1029  
McCamey 1SSW  02:50 PM 91 41 18% SW79 21 mph 286° @ 0110 PM 92 63 82 17 29.58" 0 0.00 820  
Menard 2NW   02:50 PM 90 58 34% W47 19 mph 205° @ 0846 AM 90 67 89 33 29.60" 0 0.00 651  
Mertzon 3NNE  02:50 PM 93 49 23% S56 33 mph 184° @ 1220 AM 93 68 88 23 29.58" 0 0.00 653  
New Home  02:50 PM 80 38 22% S1316 27 mph 169° @ 0216 PM 83 52 79 21 29.63" 0 0.00 1072  
O'Donnell 1N  02:50 PM 80 35 20% SE1220 27 mph 190° @ 1255 AM 80 54 70 19 29.61" 0 0.00 640  
Plains 3N  02:50 PM 80 34 19% S1823 36 mph 187° @ 0225 PM 80 49 63 17 29.62" 0 0.00 775  
Post 1NE  02:50 PM 83 40 22% SE1218 30 mph 194° @ 1230 AM 83 54 76 22 29.60" 0 0.00 828  
San Angelo 7NW  02:50 PM 91 44 20% SW24 32 mph 172° @ 1220 AM 91 69 81 20 29.57" 0 0.00 859  
Seagraves 1SW  02:50 PM 83 34 18% S1827 30 mph 288° @ 0200 AM 83 53 59 18 29.61" 0 0.00 868  
Seminole 2NNE  02:50 PM 82 31 16% SW1520 30 mph 180° @ 0225 PM 82 54 51 16 29.61" 0 0.00 593  
Sierra Blanca 1SSE  02:50 PM 80 32 18% SW1824 36 mph 254° @ 1235 AM 81 66 37 17 29.71" 0 0.00 715  
Snyder 3E  02:50 PM 87 41 20% SE1217 31 mph 183° @ 0235 AM 87 57 75 20 29.59" 0 0.00 760  
Snyder 3SSW  02:50 PM 85 44 23% SE811 28 mph 190° @ 0209 AM 85 59 71 23 29.60" 0 0.00 515  
St. Lawrence 5SW  02:50 PM 88 35 16% SW1321 27 mph 190° @ 0155 AM 88 63 84 16 29.61" 0 0.00 753  
Stamford 5ESE  02:50 PM 86 51 29% SE911 30 mph 193° @ 0216 AM 88 62 72 25 29.57" 0 0.00 495  
Sterling City 4WSW  02:50 PM 90 46 22% SE34 30 mph 178° @ 0240 AM 90 65 85 22 29.59" 0 0.00 759  
Sundown 8WSW  02:50 PM 81 37 21% S2232 34 mph 198° @ 0150 PM 81 46 77 21 29.62" 0 0.00 728  
Sweetwater 11SW   02:50 PM 85 51 31% NE69 34 mph 204° @ 0303 AM 85 60 87 27 29.61" 0 0.00 888  
Tahoka 3NNE  02:50 PM 81 38 21% S1820 29 mph 164° @ 0228 PM 82 53 77 21 29.61" 0 0.00 1081  
Tarzan 2WNW  02:50 PM 83 41 23% SW912 23 mph 176° @ 1211 AM 85 59 59 21 29.62" 0 0.00 781  
Tatum NM 2SW  02:50 PM 80 33 18% S2634 35 mph 194° @ 0245 PM 81 47 60 18 29.63" 0 0.00 797  
Throckmorton 1SW  02:50 PM 86 58 38% E611 24 mph 181° @ 1205 AM 86 62 81 38 29.58" 0 0.00 915  
Wall 2E  02:50 PM 91 53 27% SE68 39 mph 175° @ 1206 AM 93 70 83 19 29.57" 0 0.00 995  
Weinert 2NNE  02:50 PM 86 49 27% E1012 34 mph 189° @ 1208 AM 86 58 73 25 29.57" 0 0.00 1033  
Welch  02:50 PM 84 39 20% S1922 31 mph 305° @ 0209 AM 84 55 66 20 29.62" 0 0.00 843  

West Texas Mesonet Home   Site Map/Menu  NWS Lubbock Soil Data  Daily Summary Page  24hr Precip  72hr Precip  Google Plot